createdAt,value
2018-01-23T00:00:02.993Z,0
2018-01-23T00:00:35.014Z,0
2018-01-23T00:01:07.022Z,0
2018-01-23T00:01:38.994Z,0
2018-01-23T00:02:10.986Z,0
2018-01-23T00:02:42.919Z,0
2018-01-23T00:03:14.925Z,0
2018-01-23T00:03:46.953Z,0
2018-01-23T00:04:19.101Z,0
2018-01-23T00:04:51.265Z,0
2018-01-23T00:05:23.295Z,0
2018-01-23T00:05:55.327Z,0
2018-01-23T00:06:27.439Z,0
2018-01-23T00:06:59.468Z,0
2018-01-23T00:07:31.505Z,0
2018-01-23T00:08:03.532Z,0
2018-01-23T00:08:35.661Z,0
2018-01-23T00:09:07.671Z,0
2018-01-23T00:09:39.695Z,0
2018-01-23T00:10:11.746Z,0
2018-01-23T00:10:43.747Z,0
2018-01-23T00:11:15.756Z,0
2018-01-23T00:11:47.763Z,0
2018-01-23T00:12:19.786Z,0
2018-01-23T00:12:52.315Z,0
2018-01-23T00:13:24.333Z,0
2018-01-23T00:13:56.301Z,0
2018-01-23T00:14:28.287Z,0
2018-01-23T00:15:00.280Z,0
2018-01-23T00:15:32.353Z,0
2018-01-23T00:16:04.368Z,0
2018-01-23T00:16:36.372Z,0
2018-01-23T00:17:08.341Z,0
2018-01-23T00:17:42.024Z,0
2018-01-23T00:18:14.010Z,0
2018-01-23T00:18:46.114Z,0
2018-01-23T00:19:18.142Z,0
2018-01-23T00:19:50.184Z,0
2018-01-23T00:20:22.164Z,0
2018-01-23T00:20:54.207Z,0
2018-01-23T00:21:26.187Z,0
2018-01-23T00:21:58.882Z,0
2018-01-23T00:22:30.910Z,0
2018-01-23T00:23:02.905Z,0
2018-01-23T00:23:34.922Z,0
2018-01-23T00:24:06.921Z,0
2018-01-23T00:24:38.930Z,0
2018-01-23T00:25:10.953Z,0
2018-01-23T00:25:42.945Z,0
2018-01-23T00:26:15.608Z,0
2018-01-23T00:26:47.598Z,0
2018-01-23T00:27:19.735Z,0
2018-01-23T00:27:51.751Z,0
2018-01-23T00:28:23.760Z,0
2018-01-23T00:28:55.775Z,0
2018-01-23T00:29:27.756Z,0
2018-01-23T00:29:59.754Z,0
2018-01-23T00:30:31.781Z,0
2018-01-23T00:31:03.866Z,0
2018-01-23T00:31:35.849Z,0
2018-01-23T00:32:07.838Z,0
2018-01-23T00:32:40.409Z,0
2018-01-23T00:33:12.399Z,0
2018-01-23T00:33:44.380Z,0
2018-01-23T00:34:16.379Z,0
2018-01-23T00:34:49.413Z,0
2018-01-23T00:35:21.388Z,0
2018-01-23T00:35:53.410Z,0
2018-01-23T00:36:25.396Z,0
2018-01-23T00:36:57.431Z,0
2018-01-23T00:37:29.435Z,0
2018-01-23T00:38:01.487Z,0
2018-01-23T00:38:33.612Z,0
2018-01-23T00:39:05.633Z,0
2018-01-23T00:39:37.655Z,0
2018-01-23T00:40:09.680Z,0
2018-01-23T00:40:41.713Z,0
2018-01-23T00:41:13.763Z,0
2018-01-23T00:41:46.611Z,0
2018-01-23T00:42:18.631Z,0
2018-01-23T00:42:50.622Z,0
2018-01-23T00:43:22.628Z,0
2018-01-23T00:43:54.624Z,0
2018-01-23T00:44:27.084Z,0
2018-01-23T00:44:59.062Z,0
2018-01-23T00:45:31.051Z,0
2018-01-23T00:46:03.024Z,0
2018-01-23T00:46:35.008Z,0
2018-01-23T00:47:07.081Z,0
2018-01-23T00:47:39.100Z,0
2018-01-23T00:48:11.099Z,0
2018-01-23T00:48:43.099Z,0
2018-01-23T00:49:15.115Z,0
2018-01-23T00:49:47.136Z,0
2018-01-23T00:50:19.162Z,0
2018-01-23T00:50:51.166Z,0
2018-01-23T00:51:23.238Z,0
2018-01-23T00:51:55.307Z,0
2018-01-23T00:52:27.308Z,0
2018-01-23T00:52:59.317Z,0
2018-01-23T00:53:31.286Z,0
2018-01-23T00:54:03.294Z,0
2018-01-23T00:54:35.335Z,0
2018-01-23T00:55:07.316Z,0
2018-01-23T00:55:39.310Z,0
2018-01-23T00:56:11.322Z,0
2018-01-23T00:56:43.376Z,0
2018-01-23T00:57:15.370Z,0
2018-01-23T00:57:47.427Z,0
2018-01-23T00:58:19.438Z,0
2018-01-23T00:58:51.454Z,0
2018-01-23T00:59:23.475Z,0
2018-01-23T00:59:55.533Z,0
2018-01-23T01:00:27.541Z,0
2018-01-23T01:00:59.595Z,0
2018-01-23T01:01:32.415Z,0
2018-01-23T01:02:04.463Z,0
2018-01-23T01:02:36.524Z,0
2018-01-23T01:03:08.516Z,0
2018-01-23T01:03:40.531Z,0
2018-01-23T01:04:12.516Z,0
2018-01-23T01:04:45.231Z,0
2018-01-23T01:05:17.245Z,0
2018-01-23T01:05:49.285Z,0
2018-01-23T01:06:21.277Z,0
2018-01-23T01:06:53.293Z,0
2018-01-23T01:07:26.245Z,0
2018-01-23T01:07:58.307Z,0
2018-01-23T01:08:30.835Z,0
2018-01-23T01:09:02.843Z,0
2018-01-23T01:09:34.832Z,0
2018-01-23T01:10:06.845Z,0
2018-01-23T01:10:38.899Z,0
2018-01-23T01:11:10.925Z,0
2018-01-23T01:11:42.965Z,0
2018-01-23T01:12:14.948Z,0
2018-01-23T01:12:47.101Z,0
2018-01-23T01:13:19.231Z,0
2018-01-23T01:13:51.248Z,0
2018-01-23T01:14:23.271Z,0
2018-01-23T01:14:55.371Z,0
2018-01-23T01:15:27.386Z,0
2018-01-23T01:15:59.346Z,0
2018-01-23T01:16:31.381Z,0
2018-01-23T01:17:03.405Z,0
2018-01-23T01:17:35.384Z,0
2018-01-23T01:18:07.432Z,0
2018-01-23T01:18:39.443Z,0
2018-01-23T01:19:11.447Z,0
2018-01-23T01:19:43.487Z,0
2018-01-23T01:20:15.502Z,0
2018-01-23T01:20:47.479Z,0
2018-01-23T01:21:19.505Z,0
2018-01-23T01:21:51.522Z,0
2018-01-23T01:22:23.520Z,0
2018-01-23T01:22:55.515Z,0
2018-01-23T01:23:27.512Z,0
2018-01-23T01:23:59.567Z,0
2018-01-23T01:24:31.626Z,0
2018-01-23T01:25:03.619Z,0
2018-01-23T01:25:35.653Z,0
2018-01-23T01:26:07.759Z,0
2018-01-23T01:26:39.767Z,0
2018-01-23T01:27:12.636Z,0
2018-01-23T01:27:44.663Z,0
2018-01-23T01:28:16.674Z,0
2018-01-23T01:28:48.783Z,0
2018-01-23T01:29:20.799Z,0
2018-01-23T01:29:52.785Z,0
2018-01-23T01:30:24.755Z,0
2018-01-23T01:30:56.732Z,0
2018-01-23T01:31:28.760Z,0
2018-01-23T01:32:01.637Z,0
2018-01-23T01:32:33.660Z,0
2018-01-23T01:33:05.792Z,0
2018-01-23T01:33:37.771Z,0
2018-01-23T01:34:09.804Z,0
2018-01-23T01:34:41.845Z,0
2018-01-23T01:35:13.993Z,0
2018-01-23T01:35:46.628Z,0
2018-01-23T01:36:18.702Z,0
2018-01-23T01:36:50.700Z,0
2018-01-23T01:37:22.772Z,0
2018-01-23T01:37:54.834Z,0
2018-01-23T01:38:26.916Z,0
2018-01-23T01:38:58.864Z,0
2018-01-23T01:39:30.878Z,0
2018-01-23T01:40:02.914Z,0
2018-01-23T01:40:34.864Z,0
2018-01-23T01:41:06.822Z,0
2018-01-23T01:41:38.851Z,0
2018-01-23T01:42:10.873Z,0
2018-01-23T01:42:42.841Z,0
2018-01-23T01:43:14.850Z,0
2018-01-23T01:43:46.894Z,0
2018-01-23T01:44:18.911Z,0
2018-01-23T01:44:50.893Z,0
2018-01-23T01:45:22.926Z,0
2018-01-23T01:45:54.969Z,0
2018-01-23T01:46:26.949Z,0
2018-01-23T01:46:58.967Z,0
2018-01-23T01:47:31.028Z,0
2018-01-23T01:48:03.574Z,0
2018-01-23T01:48:35.568Z,0
2018-01-23T01:49:07.605Z,0
2018-01-23T01:49:39.665Z,0
2018-01-23T01:50:11.682Z,0
2018-01-23T01:50:43.667Z,0
2018-01-23T01:51:15.666Z,0
2018-01-23T01:51:47.699Z,0
2018-01-23T01:52:20.555Z,0
2018-01-23T01:52:52.590Z,0
2018-01-23T01:53:24.656Z,0
2018-01-23T01:53:56.608Z,0
2018-01-23T01:54:28.652Z,0
2018-01-23T01:55:00.686Z,0
2018-01-23T01:55:32.661Z,0
2018-01-23T01:56:05.274Z,0
2018-01-23T01:56:37.284Z,0
2018-01-23T01:57:09.291Z,0
2018-01-23T01:57:41.257Z,0
2018-01-23T01:58:13.305Z,0
2018-01-23T01:58:45.309Z,0
2018-01-23T01:59:17.374Z,0
2018-01-23T01:59:49.414Z,0
2018-01-23T02:00:21.450Z,0
2018-01-23T02:00:53.479Z,0
2018-01-23T02:01:25.450Z,0
2018-01-23T02:01:57.441Z,0
2018-01-23T02:02:29.429Z,0
2018-01-23T02:03:01.390Z,0
2018-01-23T02:03:33.508Z,0
2018-01-23T02:04:05.526Z,0
2018-01-23T02:04:37.542Z,0
2018-01-23T02:05:09.556Z,0
2018-01-23T02:05:41.552Z,0
2018-01-23T02:06:13.590Z,0
2018-01-23T02:06:45.701Z,0
2018-01-23T02:07:17.726Z,0
2018-01-23T02:07:49.839Z,0
2018-01-23T02:08:21.814Z,0
2018-01-23T02:08:53.807Z,0
2018-01-23T02:09:25.789Z,0
2018-01-23T02:09:57.842Z,0
2018-01-23T02:10:29.897Z,0
2018-01-23T02:11:02.947Z,0
2018-01-23T02:11:34.995Z,0
2018-01-23T02:12:07.035Z,0
2018-01-23T02:12:39.042Z,0
2018-01-23T02:13:11.070Z,0
2018-01-23T02:13:43.677Z,0
2018-01-23T02:14:15.663Z,0
2018-01-23T02:14:47.682Z,0
2018-01-23T02:15:19.696Z,0
2018-01-23T02:15:51.685Z,0
2018-01-23T02:16:23.834Z,0
2018-01-23T02:16:55.848Z,0
2018-01-23T02:17:28.629Z,0
2018-01-23T02:18:00.638Z,0
2018-01-23T02:18:32.638Z,0
2018-01-23T02:19:04.676Z,0
2018-01-23T02:19:36.689Z,0
2018-01-23T02:20:08.803Z,0
2018-01-23T02:20:40.925Z,0
2018-01-23T02:21:12.984Z,0
2018-01-23T02:21:44.999Z,0
2018-01-23T02:22:16.982Z,0
2018-01-23T02:22:49.031Z,0
2018-01-23T02:23:21.036Z,0
2018-01-23T02:23:53.664Z,0
2018-01-23T02:24:25.737Z,0
2018-01-23T02:24:57.742Z,0
2018-01-23T02:25:29.737Z,0
2018-01-23T02:26:01.782Z,0
2018-01-23T02:26:33.763Z,0
2018-01-23T02:27:05.785Z,0
2018-01-23T02:27:37.757Z,0
2018-01-23T02:28:09.751Z,0
2018-01-23T02:28:41.773Z,0
2018-01-23T02:29:13.752Z,0
2018-01-23T02:29:45.768Z,0
2018-01-23T02:30:17.804Z,0
2018-01-23T02:30:49.877Z,0
2018-01-23T02:31:21.898Z,0
2018-01-23T02:31:53.850Z,0
2018-01-23T02:32:25.867Z,0
2018-01-23T02:32:57.859Z,0
2018-01-23T02:33:29.864Z,0
2018-01-23T02:34:01.852Z,0
2018-01-23T02:34:33.859Z,0
2018-01-23T02:35:05.837Z,0
2018-01-23T02:35:37.850Z,0
2018-01-23T02:36:10.580Z,0
2018-01-23T02:36:42.620Z,0
2018-01-23T02:37:14.633Z,0
2018-01-23T02:37:46.624Z,0
2018-01-23T02:38:18.626Z,0
2018-01-23T02:38:50.612Z,0
2018-01-23T02:39:22.643Z,0
2018-01-23T02:39:54.647Z,0
2018-01-23T02:40:26.744Z,0
2018-01-23T02:40:58.730Z,0
2018-01-23T02:41:30.746Z,0
2018-01-23T02:42:02.795Z,0
2018-01-23T02:42:34.773Z,0
2018-01-23T02:43:06.878Z,0
2018-01-23T02:43:38.914Z,0
2018-01-23T02:44:10.920Z,0
2018-01-23T02:44:42.945Z,0
2018-01-23T02:45:14.929Z,0
2018-01-23T02:45:46.984Z,0
2018-01-23T02:46:19.021Z,0
2018-01-23T02:46:51.105Z,0
2018-01-23T02:47:23.135Z,0
2018-01-23T02:47:55.156Z,0
2018-01-23T02:48:27.212Z,0
2018-01-23T02:48:59.194Z,0
2018-01-23T02:49:31.228Z,0
2018-01-23T02:50:03.292Z,0
2018-01-23T02:50:35.293Z,0
2018-01-23T02:51:07.276Z,0
2018-01-23T02:51:39.243Z,0
2018-01-23T02:52:11.192Z,0
2018-01-23T02:52:43.208Z,0
2018-01-23T02:53:15.223Z,0
2018-01-23T02:53:47.228Z,0
2018-01-23T02:54:19.232Z,0
2018-01-23T02:54:51.249Z,0
2018-01-23T02:55:23.279Z,0
2018-01-23T02:55:55.264Z,0
2018-01-23T02:56:27.261Z,0
2018-01-23T02:56:59.211Z,0
2018-01-23T02:57:31.234Z,0
2018-01-23T02:58:03.264Z,0
2018-01-23T02:58:35.297Z,0
2018-01-23T02:59:07.307Z,0
2018-01-23T02:59:39.270Z,0
2018-01-23T03:00:11.300Z,0
2018-01-23T03:00:43.306Z,0
2018-01-23T03:01:15.308Z,0
2018-01-23T03:01:47.304Z,0
2018-01-23T03:02:19.285Z,0
2018-01-23T03:02:51.399Z,0
2018-01-23T03:03:23.410Z,0
2018-01-23T03:03:55.442Z,0
2018-01-23T03:04:27.443Z,0
2018-01-23T03:05:00.019Z,0
2018-01-23T03:05:32.908Z,0
2018-01-23T03:06:04.937Z,0
2018-01-23T03:06:36.908Z,0
2018-01-23T03:07:08.921Z,0
2018-01-23T03:07:40.892Z,0
2018-01-23T03:08:12.897Z,0
2018-01-23T03:08:44.944Z,0
2018-01-23T03:09:17.121Z,0
2018-01-23T03:09:49.288Z,0
2018-01-23T03:10:21.349Z,0
2018-01-23T03:10:53.394Z,0
2018-01-23T03:11:25.416Z,0
2018-01-23T03:11:57.437Z,0
2018-01-23T03:12:29.439Z,0
2018-01-23T03:13:01.453Z,0
2018-01-23T03:13:33.445Z,0
2018-01-23T03:14:05.477Z,0
2018-01-23T03:14:37.422Z,0
2018-01-23T03:15:09.435Z,0
2018-01-23T03:15:41.435Z,0
2018-01-23T03:16:13.823Z,0
2018-01-23T03:16:45.864Z,0
2018-01-23T03:17:17.867Z,0
2018-01-23T03:17:49.871Z,0
2018-01-23T03:18:21.885Z,0
2018-01-23T03:18:53.883Z,0
2018-01-23T03:19:25.911Z,0
2018-01-23T03:19:57.942Z,0
2018-01-23T03:20:30.077Z,0
2018-01-23T03:21:02.068Z,0
2018-01-23T03:21:34.090Z,0
2018-01-23T03:22:06.117Z,0
2018-01-23T03:22:38.128Z,0
2018-01-23T03:23:10.132Z,0
2018-01-23T03:23:42.196Z,0
2018-01-23T03:24:14.900Z,0
2018-01-23T03:24:46.898Z,0
2018-01-23T03:25:18.898Z,0
2018-01-23T03:25:50.944Z,0
2018-01-23T03:26:22.917Z,0
2018-01-23T03:26:54.950Z,0
2018-01-23T03:27:27.891Z,0
2018-01-23T03:27:59.892Z,0
2018-01-23T03:28:31.870Z,0
2018-01-23T03:29:03.979Z,0
2018-01-23T03:29:35.999Z,0
2018-01-23T03:30:08.015Z,0
2018-01-23T03:30:40.999Z,0
2018-01-23T03:31:12.995Z,0
2018-01-23T03:31:45.027Z,0
2018-01-23T03:32:17.010Z,0
2018-01-23T03:32:48.987Z,0
2018-01-23T03:33:20.954Z,0
2018-01-23T03:33:52.945Z,0
2018-01-23T03:34:25.012Z,0
2018-01-23T03:34:57.043Z,0
2018-01-23T03:35:29.069Z,0
2018-01-23T03:36:01.083Z,0
2018-01-23T03:36:33.596Z,0
2018-01-23T03:37:05.610Z,0
2018-01-23T03:37:37.649Z,0
2018-01-23T03:38:09.674Z,0
2018-01-23T03:38:41.666Z,0
2018-01-23T03:39:13.647Z,0
2018-01-23T03:39:45.669Z,0
2018-01-23T03:40:17.644Z,0
2018-01-23T03:40:49.599Z,0
2018-01-23T03:41:21.642Z,0
2018-01-23T03:41:53.662Z,0
2018-01-23T03:42:25.792Z,0
2018-01-23T03:42:58.520Z,0
2018-01-23T03:43:30.514Z,0
2018-01-23T03:44:02.511Z,0
2018-01-23T03:44:34.505Z,0
2018-01-23T03:45:06.560Z,0
2018-01-23T03:45:38.505Z,0
2018-01-23T03:46:10.556Z,0
2018-01-23T03:46:42.579Z,0
2018-01-23T03:47:14.595Z,0
2018-01-23T03:47:46.609Z,0
2018-01-23T03:48:18.566Z,0
2018-01-23T03:48:50.597Z,0
2018-01-23T03:49:22.625Z,0
2018-01-23T03:49:54.615Z,0
2018-01-23T03:50:26.671Z,0
2018-01-23T03:50:58.684Z,0
2018-01-23T03:51:30.798Z,0
2018-01-23T03:52:02.838Z,0
2018-01-23T03:52:34.885Z,0
2018-01-23T03:53:06.880Z,0
2018-01-23T03:53:38.882Z,0
2018-01-23T03:54:10.876Z,0
2018-01-23T03:54:42.911Z,0
2018-01-23T03:55:14.907Z,0
2018-01-23T03:55:46.987Z,0
2018-01-23T03:56:18.999Z,0
2018-01-23T03:56:51.046Z,0
2018-01-23T03:57:24.041Z,0
2018-01-23T03:57:56.214Z,0
2018-01-23T03:58:28.232Z,0
2018-01-23T03:59:00.415Z,0
2018-01-23T03:59:32.425Z,0
2018-01-23T04:00:05.014Z,0
2018-01-23T04:00:37.089Z,0
2018-01-23T04:01:09.909Z,0
2018-01-23T04:01:41.903Z,0
2018-01-23T04:02:13.958Z,0
2018-01-23T04:02:45.959Z,0
2018-01-23T04:03:18.081Z,0
2018-01-23T04:03:50.072Z,0
2018-01-23T04:04:22.049Z,0
2018-01-23T04:04:54.057Z,0
2018-01-23T04:05:26.047Z,0
2018-01-23T04:05:58.041Z,0
2018-01-23T04:06:30.010Z,0
2018-01-23T04:07:02.544Z,0
2018-01-23T04:07:34.556Z,0
2018-01-23T04:08:07.040Z,0
2018-01-23T04:08:39.069Z,0
2018-01-23T04:09:11.155Z,0
2018-01-23T04:09:43.198Z,0
2018-01-23T04:10:15.208Z,0
2018-01-23T04:10:47.279Z,0
2018-01-23T04:11:19.267Z,0
2018-01-23T04:11:51.263Z,0
2018-01-23T04:12:23.264Z,0
2018-01-23T04:12:55.261Z,0
2018-01-23T04:13:27.305Z,0
2018-01-23T04:13:59.298Z,0
2018-01-23T04:14:31.320Z,0
2018-01-23T04:15:03.299Z,0
2018-01-23T04:15:35.412Z,0
2018-01-23T04:16:07.399Z,0
2018-01-23T04:16:39.461Z,0
2018-01-23T04:17:11.530Z,0
2018-01-23T04:17:43.503Z,0
2018-01-23T04:18:15.501Z,0
2018-01-23T04:18:47.491Z,0
2018-01-23T04:19:19.461Z,0
2018-01-23T04:19:51.517Z,0
2018-01-23T04:20:23.665Z,0
2018-01-23T04:20:56.434Z,0
2018-01-23T04:21:28.392Z,0
2018-01-23T04:22:00.445Z,0
2018-01-23T04:22:32.429Z,0
2018-01-23T04:23:04.450Z,0
2018-01-23T04:23:36.416Z,0
2018-01-23T04:24:08.428Z,0
2018-01-23T04:24:40.402Z,0
2018-01-23T04:25:12.359Z,0
2018-01-23T04:25:44.918Z,0
2018-01-23T04:26:17.768Z,0
2018-01-23T04:26:49.797Z,0
2018-01-23T04:27:21.893Z,0
2018-01-23T04:27:53.895Z,0
2018-01-23T04:28:25.889Z,0
2018-01-23T04:28:57.892Z,0
2018-01-23T04:29:30.456Z,0
2018-01-23T04:30:02.471Z,0
2018-01-23T04:30:34.549Z,0
2018-01-23T04:31:07.239Z,0
2018-01-23T04:31:39.226Z,0
2018-01-23T04:32:11.202Z,0
2018-01-23T04:32:43.234Z,0
2018-01-23T04:33:15.211Z,0
2018-01-23T04:33:47.239Z,0
2018-01-23T04:34:19.241Z,0
2018-01-23T04:34:51.270Z,0
2018-01-23T04:35:23.263Z,0
2018-01-23T04:35:55.295Z,0
2018-01-23T04:36:28.146Z,0
2018-01-23T04:37:00.240Z,0
2018-01-23T04:37:32.268Z,0
2018-01-23T04:38:04.844Z,0
2018-01-23T04:38:37.673Z,0
2018-01-23T04:39:09.660Z,0
2018-01-23T04:39:41.666Z,0
2018-01-23T04:40:13.712Z,0
2018-01-23T04:40:45.744Z,0
2018-01-23T04:41:17.803Z,0
2018-01-23T04:41:49.865Z,0
2018-01-23T04:42:21.860Z,0
2018-01-23T04:42:53.879Z,0
2018-01-23T04:43:25.863Z,0
2018-01-23T04:43:57.893Z,0
2018-01-23T04:44:29.904Z,0
2018-01-23T04:45:01.917Z,0
2018-01-23T04:45:33.922Z,0
2018-01-23T04:46:06.770Z,0
2018-01-23T04:46:38.801Z,0
2018-01-23T04:47:10.782Z,0
2018-01-23T04:47:42.765Z,0
2018-01-23T04:48:14.790Z,0
2018-01-23T04:48:46.950Z,0
2018-01-23T04:49:18.996Z,0
2018-01-23T04:49:51.035Z,0
2018-01-23T04:50:23.534Z,0
2018-01-23T04:50:55.521Z,0
2018-01-23T04:51:28.061Z,0
2018-01-23T04:52:00.104Z,0
2018-01-23T04:52:32.120Z,0
2018-01-23T04:53:04.131Z,0
2018-01-23T04:53:36.117Z,0
2018-01-23T04:54:08.142Z,0
2018-01-23T04:54:40.171Z,0
2018-01-23T04:55:12.236Z,0
2018-01-23T04:55:44.239Z,0
2018-01-23T04:56:16.348Z,0
2018-01-23T04:56:48.333Z,0
2018-01-23T04:57:20.425Z,0
2018-01-23T04:57:52.458Z,0
2018-01-23T04:58:24.460Z,0
2018-01-23T04:58:56.471Z,0
2018-01-23T04:59:28.558Z,0
2018-01-23T05:00:00.530Z,0
2018-01-23T05:00:32.528Z,0
2018-01-23T05:01:06.062Z,0
2018-01-23T05:01:38.027Z,0
2018-01-23T05:02:10.033Z,0
2018-01-23T05:02:42.202Z,0
2018-01-23T05:03:14.210Z,0
2018-01-23T05:03:46.255Z,0
2018-01-23T05:04:18.295Z,0
2018-01-23T05:04:50.317Z,0
2018-01-23T05:05:22.831Z,0
2018-01-23T05:05:55.787Z,0
2018-01-23T05:06:27.785Z,0
2018-01-23T05:06:59.815Z,0
2018-01-23T05:07:31.826Z,0
2018-01-23T05:08:03.855Z,0
2018-01-23T05:08:35.909Z,0
2018-01-23T05:09:07.962Z,0
2018-01-23T05:09:39.982Z,0
2018-01-23T05:10:12.014Z,0
2018-01-23T05:10:44.055Z,0
2018-01-23T05:11:16.030Z,0
2018-01-23T05:11:48.049Z,0
2018-01-23T05:12:20.581Z,0
2018-01-23T05:12:52.593Z,0
2018-01-23T05:13:24.600Z,0
2018-01-23T05:13:56.722Z,0
2018-01-23T05:14:28.770Z,0
2018-01-23T05:15:00.752Z,0
2018-01-23T05:15:32.790Z,0
2018-01-23T05:16:04.807Z,0
2018-01-23T05:16:36.836Z,0
2018-01-23T05:17:08.847Z,0
2018-01-23T05:17:40.818Z,0
2018-01-23T05:18:13.667Z,0
2018-01-23T05:18:46.491Z,0
2018-01-23T05:19:18.481Z,0
2018-01-23T05:19:50.487Z,0
2018-01-23T05:20:22.458Z,0
2018-01-23T05:20:54.504Z,0
2018-01-23T05:21:26.540Z,0
2018-01-23T05:21:58.536Z,0
2018-01-23T05:22:30.642Z,0
2018-01-23T05:23:02.788Z,0
2018-01-23T05:23:34.802Z,0
2018-01-23T05:24:06.791Z,0
2018-01-23T05:24:38.825Z,0
2018-01-23T05:25:10.798Z,0
2018-01-23T05:25:42.794Z,0
2018-01-23T05:26:14.844Z,0
2018-01-23T05:26:46.847Z,0
2018-01-23T05:27:18.805Z,0
2018-01-23T05:27:50.814Z,0
2018-01-23T05:28:22.818Z,0
2018-01-23T05:28:54.808Z,0
2018-01-23T05:29:26.834Z,0
2018-01-23T05:29:58.838Z,0
2018-01-23T05:30:30.863Z,0
2018-01-23T05:31:02.874Z,0
2018-01-23T05:31:35.941Z,0
2018-01-23T05:32:08.105Z,0
2018-01-23T05:32:40.141Z,0
2018-01-23T05:33:12.106Z,0
2018-01-23T05:33:44.121Z,0
2018-01-23T05:34:16.976Z,0
2018-01-23T05:34:49.023Z,0
2018-01-23T05:35:20.987Z,0
2018-01-23T05:35:52.965Z,0
2018-01-23T05:36:24.984Z,0
2018-01-23T05:36:56.984Z,0
2018-01-23T05:37:29.017Z,0
2018-01-23T05:38:01.065Z,0
2018-01-23T05:38:33.074Z,0
2018-01-23T05:39:05.081Z,0
2018-01-23T05:39:37.065Z,0
2018-01-23T05:40:09.893Z,0
2018-01-23T05:40:41.906Z,0
2018-01-23T05:41:13.931Z,0
2018-01-23T05:41:45.943Z,0
2018-01-23T05:42:18.051Z,0
2018-01-23T05:42:50.058Z,0
2018-01-23T05:43:22.106Z,0
2018-01-23T05:43:54.113Z,0
2018-01-23T05:44:26.124Z,0
2018-01-23T05:44:58.144Z,0
2018-01-23T05:45:30.169Z,0
2018-01-23T05:46:02.168Z,0
2018-01-23T05:46:34.208Z,0
2018-01-23T05:47:06.192Z,0
2018-01-23T05:47:39.687Z,0
2018-01-23T05:48:11.686Z,0
2018-01-23T05:48:43.789Z,0
2018-01-23T05:49:15.864Z,0
2018-01-23T05:49:47.880Z,0
2018-01-23T05:50:20.480Z,0
2018-01-23T05:50:52.490Z,0
2018-01-23T05:51:24.616Z,0
2018-01-23T05:51:56.595Z,0
2018-01-23T05:52:28.589Z,0
2018-01-23T05:53:00.596Z,0
2018-01-23T05:53:32.615Z,0
2018-01-23T05:54:05.281Z,0
2018-01-23T05:54:37.261Z,0
2018-01-23T05:55:09.262Z,0
2018-01-23T05:55:41.256Z,0
2018-01-23T05:56:13.287Z,0
2018-01-23T05:56:45.299Z,0
2018-01-23T05:57:17.478Z,0
2018-01-23T05:57:49.460Z,0
2018-01-23T05:58:21.485Z,0
2018-01-23T05:58:53.520Z,0
2018-01-23T05:59:25.604Z,0
2018-01-23T05:59:57.610Z,0
2018-01-23T06:00:29.600Z,0
2018-01-23T06:01:01.616Z,0
2018-01-23T06:01:33.648Z,0
2018-01-23T06:02:05.676Z,0
2018-01-23T06:02:37.821Z,0
2018-01-23T06:03:10.604Z,0
2018-01-23T06:03:42.571Z,0
2018-01-23T06:04:14.546Z,0
2018-01-23T06:04:46.529Z,0
2018-01-23T06:05:18.522Z,0
2018-01-23T06:05:50.544Z,0
2018-01-23T06:06:22.563Z,0
2018-01-23T06:06:54.566Z,0
2018-01-23T06:07:26.514Z,0
2018-01-23T06:07:58.555Z,0
2018-01-23T06:08:30.628Z,0
2018-01-23T06:09:02.636Z,0
2018-01-23T06:09:34.637Z,0
2018-01-23T06:10:06.613Z,0
2018-01-23T06:10:38.638Z,0
2018-01-23T06:11:10.622Z,0
2018-01-23T06:11:43.615Z,0
2018-01-23T06:12:15.670Z,0
2018-01-23T06:12:47.695Z,0
2018-01-23T06:13:19.720Z,0
2018-01-23T06:13:51.709Z,0
2018-01-23T06:14:23.708Z,0
2018-01-23T06:14:55.705Z,0
2018-01-23T06:15:27.679Z,0
2018-01-23T06:15:59.666Z,0
2018-01-23T06:16:31.704Z,0
2018-01-23T06:17:03.851Z,0
2018-01-23T06:17:35.837Z,0
2018-01-23T06:18:07.850Z,0
2018-01-23T06:18:39.924Z,0
2018-01-23T06:19:11.941Z,0
2018-01-23T06:19:43.922Z,0
2018-01-23T06:20:15.915Z,0
2018-01-23T06:20:47.903Z,0
2018-01-23T06:21:19.901Z,0
2018-01-23T06:21:51.898Z,0
2018-01-23T06:22:23.897Z,0
2018-01-23T06:22:55.941Z,0
2018-01-23T06:23:27.939Z,0
2018-01-23T06:23:59.990Z,0
2018-01-23T06:24:32.040Z,0
2018-01-23T06:25:04.101Z,0
2018-01-23T06:25:36.092Z,0
2018-01-23T06:26:08.138Z,0
2018-01-23T06:26:40.149Z,0
2018-01-23T06:27:12.199Z,0
2018-01-23T06:27:44.243Z,0
2018-01-23T06:28:16.257Z,0
2018-01-23T06:28:48.304Z,0
2018-01-23T06:29:20.342Z,0
2018-01-23T06:29:52.330Z,0
2018-01-23T06:30:24.452Z,0
2018-01-23T06:30:56.584Z,0
2018-01-23T06:31:28.632Z,0
2018-01-23T06:32:01.435Z,0
2018-01-23T06:32:33.469Z,0
2018-01-23T06:33:05.492Z,0
2018-01-23T06:33:37.486Z,0
2018-01-23T06:34:09.548Z,0
2018-01-23T06:34:41.603Z,0
2018-01-23T06:35:13.572Z,0
2018-01-23T06:35:45.577Z,0
2018-01-23T06:36:17.640Z,0
2018-01-23T06:36:49.743Z,0
2018-01-23T06:37:21.708Z,0
2018-01-23T06:37:54.213Z,0
2018-01-23T06:38:26.215Z,0
2018-01-23T06:38:58.376Z,0
2018-01-23T06:39:31.107Z,0
2018-01-23T06:40:03.086Z,0
2018-01-23T06:40:35.167Z,0
2018-01-23T06:41:07.194Z,0
2018-01-23T06:41:39.232Z,0
2018-01-23T06:42:11.282Z,0
2018-01-23T06:42:44.217Z,0
2018-01-23T06:43:16.256Z,0
2018-01-23T06:43:48.250Z,0
2018-01-23T06:44:20.283Z,0
2018-01-23T06:44:52.428Z,0
2018-01-23T06:45:24.582Z,0
2018-01-23T06:45:56.571Z,0
2018-01-23T06:46:29.147Z,0
2018-01-23T06:47:01.168Z,0
2018-01-23T06:47:33.197Z,0
2018-01-23T06:48:05.734Z,0
2018-01-23T06:48:37.874Z,0
2018-01-23T06:49:09.900Z,0
2018-01-23T06:49:41.913Z,0
2018-01-23T06:50:13.932Z,0
2018-01-23T06:50:45.938Z,0
2018-01-23T06:51:17.955Z,0
2018-01-23T06:51:49.965Z,0
2018-01-23T06:52:21.975Z,0
2018-01-23T06:52:53.953Z,0
2018-01-23T06:53:26.049Z,0
2018-01-23T06:53:59.051Z,0
2018-01-23T06:54:31.002Z,0
2018-01-23T06:55:03.034Z,0
2018-01-23T06:55:35.130Z,0
2018-01-23T06:56:07.110Z,4
2018-01-23T06:56:39.753Z,4
2018-01-23T06:57:11.850Z,4
2018-01-23T06:57:43.870Z,0
2018-01-23T06:58:15.876Z,0
2018-01-23T06:58:47.870Z,0
2018-01-23T06:59:19.911Z,4
2018-01-23T06:59:51.917Z,4
2018-01-23T07:00:23.870Z,4
2018-01-23T07:00:55.861Z,0
2018-01-23T07:01:27.855Z,4
2018-01-23T07:02:00.620Z,4
2018-01-23T07:02:32.795Z,4
2018-01-23T07:03:04.745Z,4
2018-01-23T07:03:36.750Z,4
2018-01-23T07:04:08.763Z,4
2018-01-23T07:04:40.817Z,4
2018-01-23T07:05:12.799Z,4
2018-01-23T07:05:44.958Z,8
2018-01-23T07:06:16.985Z,8
2018-01-23T07:06:49.021Z,8
2018-01-23T07:07:21.051Z,8
2018-01-23T07:07:53.034Z,8
2018-01-23T07:08:25.915Z,8
2018-01-23T07:08:57.976Z,8
2018-01-23T07:09:29.972Z,8
2018-01-23T07:10:01.970Z,8
2018-01-23T07:10:33.983Z,8
2018-01-23T07:11:05.947Z,8
2018-01-23T07:11:37.937Z,12
2018-01-23T07:12:09.899Z,12
2018-01-23T07:12:41.864Z,12
2018-01-23T07:13:13.933Z,16
2018-01-23T07:13:45.935Z,16
2018-01-23T07:14:17.975Z,20
2018-01-23T07:14:50.029Z,16
2018-01-23T07:15:22.032Z,20
2018-01-23T07:15:54.025Z,24
2018-01-23T07:16:26.027Z,24
2018-01-23T07:16:58.013Z,24
2018-01-23T07:17:30.048Z,24
2018-01-23T07:18:02.025Z,24
2018-01-23T07:18:34.076Z,24
2018-01-23T07:19:06.107Z,28
2018-01-23T07:19:38.184Z,32
2018-01-23T07:20:10.213Z,32
2018-01-23T07:20:42.229Z,28
2018-01-23T07:21:14.269Z,32
2018-01-23T07:21:46.302Z,36
2018-01-23T07:22:18.309Z,36
2018-01-23T07:22:50.295Z,36
2018-01-23T07:23:22.314Z,36
2018-01-23T07:23:54.345Z,40
2018-01-23T07:24:26.352Z,40
2018-01-23T07:24:59.064Z,44
2018-01-23T07:25:31.077Z,48
2018-01-23T07:26:03.093Z,52
2018-01-23T07:26:35.876Z,52
2018-01-23T07:27:07.829Z,56
2018-01-23T07:27:39.861Z,60
2018-01-23T07:28:11.863Z,64
2018-01-23T07:28:44.020Z,72
2018-01-23T07:29:16.031Z,80
2018-01-23T07:29:48.022Z,88
2018-01-23T07:30:20.039Z,92
2018-01-23T07:30:52.552Z,96
2018-01-23T07:31:24.620Z,104
2018-01-23T07:31:56.664Z,112
2018-01-23T07:32:28.652Z,120
2018-01-23T07:33:00.695Z,120
2018-01-23T07:33:32.673Z,128
2018-01-23T07:34:04.718Z,132
2018-01-23T07:34:36.770Z,132
2018-01-23T07:35:08.779Z,132
2018-01-23T07:35:40.758Z,136
2018-01-23T07:36:12.830Z,144
2018-01-23T07:36:44.835Z,140
2018-01-23T07:37:16.800Z,140
2018-01-23T07:37:48.894Z,144
2018-01-23T07:38:20.895Z,144
2018-01-23T07:38:52.882Z,144
2018-01-23T07:39:24.877Z,148
2018-01-23T07:39:56.996Z,156
2018-01-23T07:40:29.023Z,160
2018-01-23T07:41:01.087Z,168
2018-01-23T07:41:33.083Z,180
2018-01-23T07:42:05.080Z,184
2018-01-23T07:42:37.111Z,196
2018-01-23T07:43:09.139Z,204
2018-01-23T07:43:41.142Z,208
2018-01-23T07:44:13.181Z,208
2018-01-23T07:44:45.214Z,212
2018-01-23T07:45:17.219Z,200
2018-01-23T07:45:49.751Z,188
2018-01-23T07:46:21.785Z,192
2018-01-23T07:46:53.862Z,196
2018-01-23T07:47:26.331Z,196
2018-01-23T07:47:58.321Z,200
2018-01-23T07:48:30.364Z,200
2018-01-23T07:49:02.347Z,196
2018-01-23T07:49:34.328Z,196
2018-01-23T07:50:06.408Z,192
2018-01-23T07:50:38.509Z,192
2018-01-23T07:51:10.518Z,200
2018-01-23T07:51:42.527Z,208